Huvudsida
METAR-TAF:

METAR-TAF

Flygplatser :

Kharg Island, Iran

latitud: 29-15-34N, longitud: 50-19-24E, höjd: 5 m

Aktuellt väderrapport

Denna rapport gjordes för 50 minuter sedan, klockan 14:00 UTC
Vind 8 kt från syd/sydväst
Temperatur 40°C
Fuktighet 32%
Tryck 998 hPa
Sikt 10 km eller mer
Inga moln under 1 500 m eller inga cumulonimbus

METAR: OIBQ 261400Z 20008KT CAVOK 40/20 Q0998

Tid: 19:20 (14:50 UTC)


TAF: saknas

Aktuella väderrapporter och prognoser från 4000 flygplatser (METAR- och TAF-rapporter).

De tillgängliga stationerna syns som gula och röda prickar på kartan.

För musen över prickarna för att se namnen på stationerna.

Klicka sedan för att få väderrapporter och prognoser.

För att ändra kartan: Klicka på de gröna knapparna med ett svart kors på för att zooma in; den gröna knappen med ett streck på för att zooma ut; eller på de gröna pilarna för angränsande kartor.


METAR-TAF: